sensor_id;sensor_type;location;lat;lon;timestamp;pressure;altitude;pressure_sealevel;temperature;humidity
70589;BME280;58152;49.202;18.744;2022-10-31T01:43:53;97906.41;;;11.81;75.84
70589;BME280;58152;49.202;18.744;2022-10-31T01:46:28;97907.50;;;11.76;75.63
70589;BME280;58152;49.202;18.744;2022-10-31T01:49:04;97910.81;;;11.81;75.41
70589;BME280;58152;49.202;18.744;2022-10-31T01:51:34;97912.50;;;11.82;75.18
70589;BME280;58152;49.202;18.744;2022-10-31T01:54:07;97899.75;;;11.73;75.10
70589;BME280;58152;49.202;18.744;2022-10-31T01:56:43;97895.56;;;11.68;75.69
70589;BME280;58152;49.202;18.744;2022-10-31T01:59:26;97899.94;;;11.68;75.37
70589;BME280;58152;49.202;18.744;2022-10-31T02:01:53;97911.06;;;11.75;74.94
70589;BME280;58152;49.202;18.744;2022-10-31T02:04:19;97917.28;;;11.72;75.14
70589;BME280;58152;49.202;18.744;2022-10-31T02:06:52;97914.16;;;11.64;75.31
70589;BME280;58152;49.202;18.744;2022-10-31T02:09:26;97904.53;;;11.63;75.42
70589;BME280;58152;49.202;18.744;2022-10-31T02:11:59;97909.00;;;11.61;75.22
70589;BME280;58152;49.202;18.744;2022-10-31T02:14:31;97907.09;;;11.64;75.21
70589;BME280;58152;49.202;18.744;2022-10-31T02:16:59;97904.53;;;11.63;75.32
70589;BME280;58152;49.202;18.744;2022-10-31T02:22:26;97914.19;;;11.62;75.72
70589;BME280;58152;49.202;18.744;2022-10-31T02:28:00;97910.81;;;11.59;75.22
70589;BME280;58152;49.202;18.744;2022-10-31T02:33:44;97897.00;;;11.54;75.97
70589;BME280;58152;49.202;18.744;2022-10-31T02:36:20;97905.72;;;11.56;75.47
70589;BME280;58152;49.202;18.744;2022-10-31T02:39:16;97896.25;;;11.52;75.79
70589;BME280;58152;49.202;18.744;2022-10-31T02:42:09;97912.59;;;11.58;76.39
70589;BME280;58152;49.202;18.744;2022-10-31T02:48:30;97912.78;;;11.54;76.22
70589;BME280;58152;49.202;18.744;2022-10-31T02:58:15;97906.13;;;11.45;76.08
70589;BME280;58152;49.202;18.744;2022-10-31T03:04:07;97910.59;;;11.43;75.96
70589;BME280;58152;49.202;18.744;2022-10-31T03:09:52;97916.88;;;11.39;75.65
70589;BME280;58152;49.202;18.744;2022-10-31T03:12:39;97925.78;;;11.35;76.12
70589;BME280;58152;49.202;18.744;2022-10-31T03:15:29;97918.91;;;11.32;76.11
70589;BME280;58152;49.202;18.744;2022-10-31T03:18:19;97914.78;;;11.25;75.76
70589;BME280;58152;49.202;18.744;2022-10-31T03:23:56;97930.44;;;11.28;75.64
70589;BME280;58152;49.202;18.744;2022-10-31T03:26:28;97922.69;;;11.25;75.63
70589;BME280;58152;49.202;18.744;2022-10-31T03:29:08;97927.00;;;11.26;76.22
70589;BME280;58152;49.202;18.744;2022-10-31T03:31:48;97937.41;;;11.29;76.33
70589;BME280;58152;49.202;18.744;2022-10-31T03:34:17;97928.78;;;11.26;76.10
70589;BME280;58152;49.202;18.744;2022-10-31T03:36:45;97924.56;;;11.22;75.83
70589;BME280;58152;49.202;18.744;2022-10-31T03:39:18;97929.63;;;11.26;76.14
70589;BME280;58152;49.202;18.744;2022-10-31T03:42:04;97928.94;;;11.23;75.88
70589;BME280;58152;49.202;18.744;2022-10-31T03:44:41;97931.47;;;11.24;76.24
70589;BME280;58152;49.202;18.744;2022-10-31T03:47:11;97918.63;;;11.16;75.93
70589;BME280;58152;49.202;18.744;2022-10-31T03:49:41;97927.19;;;11.22;76.08
70589;BME280;58152;49.202;18.744;2022-10-31T03:52:28;97935.06;;;11.22;75.93
70589;BME280;58152;49.202;18.744;2022-10-31T03:55:34;97936.06;;;11.19;75.63
70589;BME280;58152;49.202;18.744;2022-10-31T03:58:23;97920.50;;;11.13;75.93
70589;BME280;58152;49.202;18.744;2022-10-31T04:00:57;97929.13;;;11.16;76.32
70589;BME280;58152;49.202;18.744;2022-10-31T04:03:31;97922.38;;;11.11;75.71
70589;BME280;58152;49.202;18.744;2022-10-31T04:06:13;97923.28;;;11.10;76.14
70589;BME280;58152;49.202;18.744;2022-10-31T04:09:04;97931.16;;;11.10;76.44
70589;BME280;58152;49.202;18.744;2022-10-31T04:11:44;97936.41;;;11.10;76.03
70589;BME280;58152;49.202;18.744;2022-10-31T04:14:35;97933.97;;;11.05;75.66
70589;BME280;58152;49.202;18.744;2022-10-31T04:17:17;97926.13;;;11.04;76.36
70589;BME280;58152;49.202;18.744;2022-10-31T04:20:00;97926.28;;;10.99;76.18
70589;BME280;58152;49.202;18.744;2022-10-31T04:22:27;97933.16;;;11.03;76.06
70589;BME280;58152;49.202;18.744;2022-10-31T04:25:01;97935.84;;;11.02;76.00
70589;BME280;58152;49.202;18.744;2022-10-31T04:27:31;97928.22;;;10.96;76.28
70589;BME280;58152;49.202;18.744;2022-10-31T04:29:56;97924.72;;;10.95;76.26
70589;BME280;58152;49.202;18.744;2022-10-31T04:32:25;97926.38;;;10.98;76.79
70589;BME280;58152;49.202;18.744;2022-10-31T04:34:55;97920.38;;;10.94;75.93
70589;BME280;58152;49.202;18.744;2022-10-31T04:37:21;97936.88;;;10.98;76.20
70589;BME280;58152;49.202;18.744;2022-10-31T04:39:59;97932.72;;;10.92;76.49
70589;BME280;58152;49.202;18.744;2022-10-31T04:42:44;97934.31;;;10.96;76.53
70589;BME280;58152;49.202;18.744;2022-10-31T04:45:10;97931.00;;;10.91;76.39
70589;BME280;58152;49.202;18.744;2022-10-31T04:47:36;97931.91;;;10.90;76.40
70589;BME280;58152;49.202;18.744;2022-10-31T04:50:07;97931.97;;;10.88;76.37
70589;BME280;58152;49.202;18.744;2022-10-31T04:52:43;97931.09;;;10.88;76.12
70589;BME280;58152;49.202;18.744;2022-10-31T04:55:13;97943.28;;;10.90;76.93
70589;BME280;58152;49.202;18.744;2022-10-31T04:57:49;97935.56;;;10.86;76.81
70589;BME280;58152;49.202;18.744;2022-10-31T05:00:37;97925.19;;;10.83;76.51
70589;BME280;58152;49.202;18.744;2022-10-31T05:03:08;97938.91;;;10.89;76.11
70589;BME280;58152;49.202;18.744;2022-10-31T05:05:42;97924.31;;;10.82;76.42
70589;BME280;58152;49.202;18.744;2022-10-31T05:08:09;97925.34;;;10.78;76.52
70589;BME280;58152;49.202;18.744;2022-10-31T05:10:36;97932.22;;;10.81;76.26
70589;BME280;58152;49.202;18.744;2022-10-31T05:13:10;97939.94;;;10.85;76.04
70589;BME280;58152;49.202;18.744;2022-10-31T05:15:39;97926.31;;;10.76;76.21
70589;BME280;58152;49.202;18.744;2022-10-31T05:18:05;97934.06;;;10.79;76.75
70589;BME280;58152;49.202;18.744;2022-10-31T05:20:33;97924.66;;;10.73;76.61
70589;BME280;58152;49.202;18.744;2022-10-31T05:22:59;97929.00;;;10.74;76.62
70589;BME280;58152;49.202;18.744;2022-10-31T05:25:28;97933.38;;;10.74;76.91
70589;BME280;58152;49.202;18.744;2022-10-31T05:27:54;97936.09;;;10.72;76.28
70589;BME280;58152;49.202;18.744;2022-10-31T05:30:28;97933.38;;;10.74;76.76
70589;BME280;58152;49.202;18.744;2022-10-31T05:33:01;97930.19;;;10.65;76.57
70589;BME280;58152;49.202;18.744;2022-10-31T05:35:32;97937.22;;;10.65;76.33
70589;BME280;58152;49.202;18.744;2022-10-31T05:38:15;97946.63;;;10.71;76.30
70589;BME280;58152;49.202;18.744;2022-10-31T05:43:45;97941.69;;;10.61;76.16
70589;BME280;58152;49.202;18.744;2022-10-31T05:46:36;97948.63;;;10.64;76.38
70589;BME280;58152;49.202;18.744;2022-10-31T05:52:35;97940.16;;;10.56;75.67
70589;BME280;58152;49.202;18.744;2022-10-31T05:55:11;97954.88;;;10.60;76.09
70589;BME280;58152;49.202;18.744;2022-10-31T05:57:40;97953.19;;;10.59;76.11
70589;BME280;58152;49.202;18.744;2022-10-31T06:00:06;97948.25;;;10.50;76.12
70589;BME280;58152;49.202;18.744;2022-10-31T06:02:32;97951.56;;;10.55;76.90
70589;BME280;58152;49.202;18.744;2022-10-31T06:05:00;97953.13;;;10.60;76.74
70589;BME280;58152;49.202;18.744;2022-10-31T06:07:31;97957.19;;;10.69;76.49
70589;BME280;58152;49.202;18.744;2022-10-31T06:10:02;97953.81;;;10.65;75.80
70589;BME280;58152;49.202;18.744;2022-10-31T06:12:33;97953.91;;;10.62;76.22
70589;BME280;58152;49.202;18.744;2022-10-31T06:15:07;97975.66;;;10.66;76.00
70589;BME280;58152;49.202;18.744;2022-10-31T06:17:34;97967.84;;;10.64;76.26
70589;BME280;58152;49.202;18.744;2022-10-31T06:20:00;97974.72;;;10.67;76.10
70589;BME280;58152;49.202;18.744;2022-10-31T06:22:31;97975.03;;;10.59;75.89
70589;BME280;58152;49.202;18.744;2022-10-31T06:28:18;97969.03;;;10.56;76.48
70589;BME280;58152;49.202;18.744;2022-10-31T06:30:54;97977.84;;;10.53;75.81
70589;BME280;58152;49.202;18.744;2022-10-31T06:36:27;97982.22;;;10.54;76.03
70589;BME280;58152;49.202;18.744;2022-10-31T06:38:52;97994.34;;;10.57;76.29
70589;BME280;58152;49.202;18.744;2022-10-31T06:41:23;97986.59;;;10.54;76.11
70589;BME280;58152;49.202;18.744;2022-10-31T06:43:48;97984.84;;;10.53;75.91
70589;BME280;58152;49.202;18.744;2022-10-31T06:46:14;97993.50;;;10.56;76.01
70589;BME280;58152;49.202;18.744;2022-10-31T06:48:45;97997.09;;;10.54;75.34
70589;BME280;58152;49.202;18.744;2022-10-31T06:51:15;97989.38;;;10.49;75.70
70589;BME280;58152;49.202;18.744;2022-10-31T06:53:40;97991.19;;;10.47;76.49
70589;BME280;58152;49.202;18.744;2022-10-31T06:56:06;97994.63;;;10.49;76.19
70589;BME280;58152;49.202;18.744;2022-10-31T06:58:32;98009.47;;;10.50;75.58
70589;BME280;58152;49.202;18.744;2022-10-31T07:01:22;98011.84;;;10.56;76.03
70589;BME280;58152;49.202;18.744;2022-10-31T07:04:20;97996.28;;;10.52;76.90
70589;BME280;58152;49.202;18.744;2022-10-31T07:06:45;98003.81;;;10.61;75.93
70589;BME280;58152;49.202;18.744;2022-10-31T07:09:12;98000.50;;;10.56;75.62
70589;BME280;58152;49.202;18.744;2022-10-31T07:11:37;98006.53;;;10.58;75.80
70589;BME280;58152;49.202;18.744;2022-10-31T07:14:03;98010.91;;;10.59;75.51
70589;BME280;58152;49.202;18.744;2022-10-31T07:16:32;97999.59;;;10.57;76.00
70589;BME280;58152;49.202;18.744;2022-10-31T07:18:58;98015.16;;;10.61;76.09
70589;BME280;58152;49.202;18.744;2022-10-31T07:21:24;98010.94;;;10.57;75.86
70589;BME280;58152;49.202;18.744;2022-10-31T07:23:50;98011.00;;;10.56;75.28
70589;BME280;58152;49.202;18.744;2022-10-31T07:26:15;98005.00;;;10.52;75.72
70589;BME280;58152;49.202;18.744;2022-10-31T07:28:41;98018.78;;;10.59;75.82
70589;BME280;58152;49.202;18.744;2022-10-31T07:31:07;98007.44;;;10.58;76.00
70589;BME280;58152;49.202;18.744;2022-10-31T07:33:33;98009.22;;;10.56;75.16
70589;BME280;58152;49.202;18.744;2022-10-31T07:36:00;98003.28;;;10.51;76.08
70589;BME280;58152;49.202;18.744;2022-10-31T07:38:28;98018.97;;;10.53;76.21
70589;BME280;58152;49.202;18.744;2022-10-31T07:40:54;98007.69;;;10.51;76.08
70589;BME280;58152;49.202;18.744;2022-10-31T07:43:21;98018.09;;;10.54;76.16
70589;BME280;58152;49.202;18.744;2022-10-31T07:45:52;98013.69;;;10.54;75.93
70589;BME280;58152;49.202;18.744;2022-10-31T08:02:09;98011.06;;;10.54;76.83
70589;BME280;58152;49.202;18.744;2022-10-31T08:04:42;98014.53;;;10.55;76.29
70589;BME280;58152;49.202;18.744;2022-10-31T08:07:09;98019.56;;;10.61;76.63
70589;BME280;58152;49.202;18.744;2022-10-31T08:09:44;98013.47;;;10.60;76.22
70589;BME280;58152;49.202;18.744;2022-10-31T08:12:19;98008.28;;;10.59;76.93
70589;BME280;58152;49.202;18.744;2022-10-31T08:14:53;98018.38;;;10.69;76.28
70589;BME280;58152;49.202;18.744;2022-10-31T08:17:29;98017.47;;;10.71;77.27
70589;BME280;58152;49.202;18.744;2022-10-31T08:20:02;98015.88;;;10.66;76.63
70589;BME280;58152;49.202;18.744;2022-10-31T08:22:28;98011.47;;;10.67;76.78
70589;BME280;58152;49.202;18.744;2022-10-31T08:25:03;98016.63;;;10.70;76.70
70589;BME280;58152;49.202;18.744;2022-10-31T08:27:28;98023.38;;;10.77;77.00
70589;BME280;58152;49.202;18.744;2022-10-31T08:29:56;98011.28;;;10.73;76.85
70589;BME280;58152;49.202;18.744;2022-10-31T08:32:43;98012.91;;;10.76;76.62
70589;BME280;58152;49.202;18.744;2022-10-31T08:35:08;98016.22;;;10.81;76.67
70589;BME280;58152;49.202;18.744;2022-10-31T08:37:35;98018.81;;;10.82;76.73
70589;BME280;58152;49.202;18.744;2022-10-31T08:40:27;98012.81;;;10.79;77.08
70589;BME280;58152;49.202;18.744;2022-10-31T08:43:13;98016.88;;;10.87;77.78
70589;BME280;58152;49.202;18.744;2022-10-31T08:48:48;98012.84;;;11.02;76.98
70589;BME280;58152;49.202;18.744;2022-10-31T08:51:14;98006.91;;;10.97;76.44
70589;BME280;58152;49.202;18.744;2022-10-31T08:53:39;98017.16;;;11.03;76.22
70589;BME280;58152;49.202;18.744;2022-10-31T08:56:05;98003.34;;;10.98;76.22
70589;BME280;58152;49.202;18.744;2022-10-31T08:58:31;98004.19;;;11.00;76.11
70589;BME280;58152;49.202;18.744;2022-10-31T09:01:05;97998.06;;;11.00;76.95
70589;BME280;58152;49.202;18.744;2022-10-31T09:03:36;97997.16;;;11.01;76.97
70589;BME280;58152;49.202;18.744;2022-10-31T09:06:11;98001.16;;;11.11;77.53
70589;BME280;58152;49.202;18.744;2022-10-31T09:08:39;97994.88;;;11.15;77.02
70589;BME280;58152;49.202;18.744;2022-10-31T09:11:06;97994.75;;;11.18;76.73
70589;BME280;58152;49.202;18.744;2022-10-31T09:13:34;97999.94;;;11.19;76.83
70589;BME280;58152;49.202;18.744;2022-10-31T19:50:14;97882.19;;;14.20;65.49
70589;BME280;58152;49.202;18.744;2022-10-31T22:05:28;97865.03;;;13.04;69.08
70589;BME280;58152;49.202;18.744;2022-10-31T22:18:03;97852.78;;;13.03;69.18
70589;BME280;58152;49.202;18.744;2022-10-31T22:35:16;97829.72;;;12.89;69.69
70589;BME280;58152;49.202;18.744;2022-10-31T22:38:46;97843.66;;;12.91;69.91
